sensor_id;sensor_type;location;lat;lon;timestamp;P1;durP1;ratioP1;P2;durP2;ratioP2
9409;SDS011;4744;52.576;13.568;2023-01-09T00:00:25;9.20;;;8.30;;
9409;SDS011;4744;52.576;13.568;2023-01-09T00:02:53;9.07;;;8.23;;
9409;SDS011;4744;52.576;13.568;2023-01-09T00:05:20;10.07;;;8.98;;
9409;SDS011;4744;52.576;13.568;2023-01-09T00:07:47;9.85;;;8.70;;
9409;SDS011;4744;52.576;13.568;2023-01-09T00:10:14;9.18;;;8.32;;
9409;SDS011;4744;52.576;13.568;2023-01-09T00:12:41;9.30;;;8.40;;
9409;SDS011;4744;52.576;13.568;2023-01-09T00:15:10;8.95;;;8.05;;
9409;SDS011;4744;52.576;13.568;2023-01-09T00:17:37;9.25;;;8.35;;
9409;SDS011;4744;52.576;13.568;2023-01-09T00:20:05;9.48;;;8.57;;
9409;SDS011;4744;52.576;13.568;2023-01-09T00:22:34;9.90;;;8.90;;
9409;SDS011;4744;52.576;13.568;2023-01-09T00:25:01;9.27;;;8.38;;
9409;SDS011;4744;52.576;13.568;2023-01-09T00:27:29;9.80;;;8.68;;
9409;SDS011;4744;52.576;13.568;2023-01-09T00:29:57;10.23;;;9.10;;
9409;SDS011;4744;52.576;13.568;2023-01-09T00:32:25;10.13;;;9.13;;
9409;SDS011;4744;52.576;13.568;2023-01-09T00:34:53;10.32;;;9.27;;
9409;SDS011;4744;52.576;13.568;2023-01-09T00:37:21;10.38;;;9.23;;
9409;SDS011;4744;52.576;13.568;2023-01-09T00:39:48;11.95;;;9.57;;
9409;SDS011;4744;52.576;13.568;2023-01-09T00:42:16;9.60;;;8.65;;
9409;SDS011;4744;52.576;13.568;2023-01-09T00:44:46;10.07;;;8.98;;
9409;SDS011;4744;52.576;13.568;2023-01-09T00:47:16;10.60;;;9.55;;
9409;SDS011;4744;52.576;13.568;2023-01-09T00:49:47;10.02;;;9.02;;
9409;SDS011;4744;52.576;13.568;2023-01-09T00:52:16;10.25;;;9.15;;
9409;SDS011;4744;52.576;13.568;2023-01-09T00:54:44;9.98;;;8.98;;
9409;SDS011;4744;52.576;13.568;2023-01-09T00:57:12;10.73;;;9.10;;
9409;SDS011;4744;52.576;13.568;2023-01-09T00:59:39;10.50;;;9.40;;
9409;SDS011;4744;52.576;13.568;2023-01-09T01:02:08;11.27;;;10.18;;
9409;SDS011;4744;52.576;13.568;2023-01-09T01:04:35;9.70;;;8.70;;
9409;SDS011;4744;52.576;13.568;2023-01-09T01:07:20;9.20;;;8.30;;
9409;SDS011;4744;52.576;13.568;2023-01-09T01:10:05;9.77;;;8.77;;
9409;SDS011;4744;52.576;13.568;2023-01-09T01:12:34;9.13;;;8.32;;
9409;SDS011;4744;52.576;13.568;2023-01-09T01:15:01;9.23;;;8.32;;
9409;SDS011;4744;52.576;13.568;2023-01-09T01:17:29;9.18;;;8.27;;
9409;SDS011;4744;52.576;13.568;2023-01-09T01:19:56;9.52;;;8.63;;
9409;SDS011;4744;52.576;13.568;2023-01-09T01:22:24;9.25;;;8.35;;
9409;SDS011;4744;52.576;13.568;2023-01-09T01:24:51;9.70;;;8.80;;
9409;SDS011;4744;52.576;13.568;2023-01-09T01:27:18;9.43;;;8.43;;
9409;SDS011;4744;52.576;13.568;2023-01-09T01:29:45;10.60;;;9.50;;
9409;SDS011;4744;52.576;13.568;2023-01-09T01:32:12;10.05;;;9.05;;
9409;SDS011;4744;52.576;13.568;2023-01-09T01:34:39;10.05;;;9.00;;
9409;SDS011;4744;52.576;13.568;2023-01-09T01:37:06;9.98;;;9.05;;
9409;SDS011;4744;52.576;13.568;2023-01-09T01:39:34;10.48;;;9.38;;
9409;SDS011;4744;52.576;13.568;2023-01-09T01:42:01;9.90;;;8.90;;
9409;SDS011;4744;52.576;13.568;2023-01-09T01:47:37;10.73;;;9.60;;
9409;SDS011;4744;52.576;13.568;2023-01-09T01:50:16;10.43;;;9.35;;
9409;SDS011;4744;52.576;13.568;2023-01-09T01:52:47;10.40;;;9.30;;
9409;SDS011;4744;52.576;13.568;2023-01-09T01:55:19;10.23;;;9.23;;
9409;SDS011;4744;52.576;13.568;2023-01-09T01:57:47;10.77;;;9.63;;
9409;SDS011;4744;52.576;13.568;2023-01-09T02:00:20;11.63;;;9.52;;
9409;SDS011;4744;52.576;13.568;2023-01-09T02:02:52;10.90;;;9.43;;
9409;SDS011;4744;52.576;13.568;2023-01-09T02:05:19;10.63;;;9.55;;
9409;SDS011;4744;52.576;13.568;2023-01-09T02:07:45;10.23;;;9.20;;
9409;SDS011;4744;52.576;13.568;2023-01-09T02:10:13;11.00;;;9.90;;
9409;SDS011;4744;52.576;13.568;2023-01-09T02:12:41;11.65;;;10.35;;
9409;SDS011;4744;52.576;13.568;2023-01-09T02:15:09;11.25;;;10.15;;
9409;SDS011;4744;52.576;13.568;2023-01-09T02:17:52;11.20;;;9.95;;
9409;SDS011;4744;52.576;13.568;2023-01-09T02:20:41;11.40;;;10.27;;
9409;SDS011;4744;52.576;13.568;2023-01-09T02:32:29;11.40;;;10.02;;
9409;SDS011;4744;52.576;13.568;2023-01-09T02:35:06;12.40;;;10.93;;
9409;SDS011;4744;52.576;13.568;2023-01-09T02:37:42;12.90;;;11.48;;
9409;SDS011;4744;52.576;13.568;2023-01-09T02:40:15;12.40;;;10.98;;
9409;SDS011;4744;52.576;13.568;2023-01-09T02:42:50;12.65;;;11.32;;
9409;SDS011;4744;52.576;13.568;2023-01-09T02:45:20;13.00;;;11.30;;
9409;SDS011;4744;52.576;13.568;2023-01-09T02:47:48;14.50;;;12.07;;
9409;SDS011;4744;52.576;13.568;2023-01-09T02:50:16;12.57;;;11.27;;
9409;SDS011;4744;52.576;13.568;2023-01-09T02:52:51;13.18;;;11.52;;
9409;SDS011;4744;52.576;13.568;2023-01-09T02:55:37;13.77;;;11.52;;
9409;SDS011;4744;52.576;13.568;2023-01-09T02:58:16;12.75;;;11.05;;
9409;SDS011;4744;52.576;13.568;2023-01-09T03:00:59;12.38;;;10.77;;
9409;SDS011;4744;52.576;13.568;2023-01-09T03:03:43;13.27;;;11.77;;
9409;SDS011;4744;52.576;13.568;2023-01-09T03:06:16;13.07;;;11.65;;
9409;SDS011;4744;52.576;13.568;2023-01-09T03:08:50;12.98;;;11.18;;
9409;SDS011;4744;52.576;13.568;2023-01-09T03:11:20;13.48;;;11.60;;
9409;SDS011;4744;52.576;13.568;2023-01-09T03:13:48;12.73;;;11.25;;
9409;SDS011;4744;52.576;13.568;2023-01-09T03:16:18;12.50;;;10.77;;
9409;SDS011;4744;52.576;13.568;2023-01-09T03:18:50;14.18;;;12.05;;
9409;SDS011;4744;52.576;13.568;2023-01-09T03:21:18;14.00;;;12.13;;
9409;SDS011;4744;52.576;13.568;2023-01-09T03:23:47;12.85;;;10.88;;
9409;SDS011;4744;52.576;13.568;2023-01-09T03:26:16;11.60;;;10.43;;
9409;SDS011;4744;52.576;13.568;2023-01-09T03:28:44;12.13;;;10.60;;
9409;SDS011;4744;52.576;13.568;2023-01-09T03:31:12;13.48;;;11.95;;
9409;SDS011;4744;52.576;13.568;2023-01-09T03:33:39;13.20;;;11.80;;
9409;SDS011;4744;52.576;13.568;2023-01-09T03:36:08;15.63;;;12.77;;
9409;SDS011;4744;52.576;13.568;2023-01-09T03:38:36;14.23;;;12.82;;
9409;SDS011;4744;52.576;13.568;2023-01-09T03:41:04;14.20;;;12.73;;
9409;SDS011;4744;52.576;13.568;2023-01-09T03:43:31;16.75;;;13.75;;
9409;SDS011;4744;52.576;13.568;2023-01-09T03:45:58;15.52;;;13.13;;
9409;SDS011;4744;52.576;13.568;2023-01-09T03:48:25;13.90;;;11.80;;
9409;SDS011;4744;52.576;13.568;2023-01-09T03:50:53;13.82;;;12.40;;
9409;SDS011;4744;52.576;13.568;2023-01-09T03:53:22;14.77;;;12.45;;
9409;SDS011;4744;52.576;13.568;2023-01-09T03:55:51;14.70;;;13.13;;
9409;SDS011;4744;52.576;13.568;2023-01-09T03:58:20;15.27;;;13.25;;
9409;SDS011;4744;52.576;13.568;2023-01-09T04:00:48;14.25;;;12.43;;
9409;SDS011;4744;52.576;13.568;2023-01-09T04:03:15;14.75;;;13.07;;
9409;SDS011;4744;52.576;13.568;2023-01-09T04:05:43;13.70;;;12.02;;
9409;SDS011;4744;52.576;13.568;2023-01-09T04:08:11;13.32;;;11.82;;
9409;SDS011;4744;52.576;13.568;2023-01-09T04:10:42;14.25;;;12.05;;
9409;SDS011;4744;52.576;13.568;2023-01-09T04:13:09;15.27;;;12.43;;
9409;SDS011;4744;52.576;13.568;2023-01-09T04:15:36;14.52;;;12.88;;
9409;SDS011;4744;52.576;13.568;2023-01-09T04:18:03;16.20;;;12.63;;
9409;SDS011;4744;52.576;13.568;2023-01-09T04:20:30;15.00;;;12.52;;
9409;SDS011;4744;52.576;13.568;2023-01-09T04:22:57;15.35;;;13.63;;
9409;SDS011;4744;52.576;13.568;2023-01-09T04:25:24;14.25;;;12.32;;
9409;SDS011;4744;52.576;13.568;2023-01-09T04:27:53;14.50;;;12.95;;
9409;SDS011;4744;52.576;13.568;2023-01-09T04:30:20;14.65;;;12.60;;
9409;SDS011;4744;52.576;13.568;2023-01-09T04:32:47;15.90;;;12.75;;
9409;SDS011;4744;52.576;13.568;2023-01-09T04:35:14;15.50;;;12.70;;
9409;SDS011;4744;52.576;13.568;2023-01-09T04:37:41;15.93;;;13.38;;
9409;SDS011;4744;52.576;13.568;2023-01-09T04:40:08;16.27;;;13.40;;
9409;SDS011;4744;52.576;13.568;2023-01-09T04:42:37;14.23;;;12.73;;
9409;SDS011;4744;52.576;13.568;2023-01-09T04:45:07;15.13;;;12.93;;
9409;SDS011;4744;52.576;13.568;2023-01-09T04:47:35;15.15;;;13.60;;
9409;SDS011;4744;52.576;13.568;2023-01-09T04:50:02;15.07;;;13.40;;
9409;SDS011;4744;52.576;13.568;2023-01-09T04:52:30;14.40;;;12.95;;
9409;SDS011;4744;52.576;13.568;2023-01-09T04:54:57;14.93;;;13.15;;
9409;SDS011;4744;52.576;13.568;2023-01-09T04:57:24;15.60;;;13.75;;
9409;SDS011;4744;52.576;13.568;2023-01-09T04:59:50;15.75;;;14.10;;
9409;SDS011;4744;52.576;13.568;2023-01-09T05:02:19;15.05;;;13.45;;
9409;SDS011;4744;52.576;13.568;2023-01-09T05:04:46;14.77;;;13.18;;
9409;SDS011;4744;52.576;13.568;2023-01-09T05:07:13;14.95;;;13.35;;
9409;SDS011;4744;52.576;13.568;2023-01-09T05:09:39;14.73;;;12.98;;
9409;SDS011;4744;52.576;13.568;2023-01-09T05:12:07;14.13;;;12.68;;
9409;SDS011;4744;52.576;13.568;2023-01-09T05:14:34;16.95;;;12.98;;
9409;SDS011;4744;52.576;13.568;2023-01-09T05:17:01;14.77;;;13.00;;
9409;SDS011;4744;52.576;13.568;2023-01-09T05:19:29;14.70;;;13.00;;
9409;SDS011;4744;52.576;13.568;2023-01-09T05:21:56;14.30;;;12.65;;
9409;SDS011;4744;52.576;13.568;2023-01-09T05:24:23;15.07;;;13.48;;
9409;SDS011;4744;52.576;13.568;2023-01-09T05:26:50;15.30;;;13.70;;
9409;SDS011;4744;52.576;13.568;2023-01-09T05:29:17;15.30;;;13.20;;
9409;SDS011;4744;52.576;13.568;2023-01-09T05:31:44;14.05;;;12.55;;
9409;SDS011;4744;52.576;13.568;2023-01-09T05:34:11;14.68;;;12.48;;
9409;SDS011;4744;52.576;13.568;2023-01-09T05:36:39;15.25;;;13.38;;
9409;SDS011;4744;52.576;13.568;2023-01-09T05:39:06;15.52;;;13.32;;
9409;SDS011;4744;52.576;13.568;2023-01-09T05:41:33;14.25;;;12.75;;
9409;SDS011;4744;52.576;13.568;2023-01-09T05:44:00;14.80;;;13.20;;
9409;SDS011;4744;52.576;13.568;2023-01-09T05:46:28;15.30;;;13.05;;
9409;SDS011;4744;52.576;13.568;2023-01-09T05:48:55;15.57;;;13.05;;
9409;SDS011;4744;52.576;13.568;2023-01-09T05:51:22;14.70;;;11.48;;
9409;SDS011;4744;52.576;13.568;2023-01-09T05:53:51;13.45;;;12.05;;
9409;SDS011;4744;52.576;13.568;2023-01-09T05:56:18;13.50;;;11.85;;
9409;SDS011;4744;52.576;13.568;2023-01-09T05:58:44;13.77;;;12.38;;
9409;SDS011;4744;52.576;13.568;2023-01-09T06:01:11;15.15;;;12.27;;
9409;SDS011;4744;52.576;13.568;2023-01-09T06:03:38;13.50;;;12.10;;
9409;SDS011;4744;52.576;13.568;2023-01-09T06:06:05;13.93;;;12.27;;
9409;SDS011;4744;52.576;13.568;2023-01-09T06:08:32;14.27;;;12.15;;
9409;SDS011;4744;52.576;13.568;2023-01-09T06:11:01;14.07;;;12.18;;
9409;SDS011;4744;52.576;13.568;2023-01-09T06:13:28;13.55;;;12.18;;
9409;SDS011;4744;52.576;13.568;2023-01-09T06:15:54;13.43;;;12.02;;
9409;SDS011;4744;52.576;13.568;2023-01-09T06:18:21;13.52;;;11.88;;
9409;SDS011;4744;52.576;13.568;2023-01-09T06:20:48;12.75;;;11.32;;
9409;SDS011;4744;52.576;13.568;2023-01-09T06:23:15;13.52;;;11.80;;
9409;SDS011;4744;52.576;13.568;2023-01-09T06:25:42;14.48;;;12.30;;
9409;SDS011;4744;52.576;13.568;2023-01-09T06:28:10;15.73;;;11.52;;
9409;SDS011;4744;52.576;13.568;2023-01-09T06:30:37;13.38;;;11.25;;
9409;SDS011;4744;52.576;13.568;2023-01-09T06:33:04;14.93;;;12.00;;
9409;SDS011;4744;52.576;13.568;2023-01-09T06:35:31;12.10;;;10.80;;
9409;SDS011;4744;52.576;13.568;2023-01-09T06:37:58;13.02;;;11.50;;
9409;SDS011;4744;52.576;13.568;2023-01-09T06:40:27;14.38;;;12.30;;
9409;SDS011;4744;52.576;13.568;2023-01-09T06:42:54;14.93;;;11.88;;
9409;SDS011;4744;52.576;13.568;2023-01-09T06:45:22;14.07;;;11.57;;
9409;SDS011;4744;52.576;13.568;2023-01-09T06:47:49;13.48;;;12.07;;
9409;SDS011;4744;52.576;13.568;2023-01-09T06:50:16;13.02;;;11.65;;
9409;SDS011;4744;52.576;13.568;2023-01-09T06:52:43;13.52;;;11.95;;
9409;SDS011;4744;52.576;13.568;2023-01-09T06:55:10;14.82;;;12.55;;
9409;SDS011;4744;52.576;13.568;2023-01-09T06:57:37;13.98;;;11.77;;
9409;SDS011;4744;52.576;13.568;2023-01-09T07:00:05;14.05;;;11.75;;
9409;SDS011;4744;52.576;13.568;2023-01-09T07:02:34;13.25;;;11.30;;
9409;SDS011;4744;52.576;13.568;2023-01-09T07:05:01;13.15;;;11.02;;
9409;SDS011;4744;52.576;13.568;2023-01-09T07:07:32;13.80;;;12.25;;
9409;SDS011;4744;52.576;13.568;2023-01-09T07:09:58;14.07;;;12.00;;
9409;SDS011;4744;52.576;13.568;2023-01-09T07:14:56;13.50;;;12.00;;
9409;SDS011;4744;52.576;13.568;2023-01-09T07:17:24;13.82;;;12.40;;
9409;SDS011;4744;52.576;13.568;2023-01-09T07:19:52;13.52;;;11.00;;
9409;SDS011;4744;52.576;13.568;2023-01-09T07:22:20;14.85;;;12.13;;
9409;SDS011;4744;52.576;13.568;2023-01-09T07:24:47;13.98;;;12.23;;
9409;SDS011;4744;52.576;13.568;2023-01-09T07:27:14;14.43;;;12.32;;
9409;SDS011;4744;52.576;13.568;2023-01-09T07:29:41;13.75;;;12.25;;
9409;SDS011;4744;52.576;13.568;2023-01-09T07:32:11;14.15;;;12.45;;
9409;SDS011;4744;52.576;13.568;2023-01-09T07:34:38;14.57;;;12.23;;
9409;SDS011;4744;52.576;13.568;2023-01-09T07:37:06;13.65;;;12.27;;
9409;SDS011;4744;52.576;13.568;2023-01-09T07:39:37;16.20;;;13.57;;
9409;SDS011;4744;52.576;13.568;2023-01-09T07:42:04;16.63;;;13.27;;
9409;SDS011;4744;52.576;13.568;2023-01-09T07:44:31;17.80;;;13.98;;
9409;SDS011;4744;52.576;13.568;2023-01-09T07:47:00;16.77;;;13.30;;
9409;SDS011;4744;52.576;13.568;2023-01-09T07:49:27;14.52;;;12.82;;
9409;SDS011;4744;52.576;13.568;2023-01-09T07:51:57;16.15;;;12.88;;
9409;SDS011;4744;52.576;13.568;2023-01-09T07:54:25;14.93;;;12.40;;
9409;SDS011;4744;52.576;13.568;2023-01-09T07:56:52;17.17;;;12.98;;
9409;SDS011;4744;52.576;13.568;2023-01-09T07:59:20;15.18;;;12.70;;
9409;SDS011;4744;52.576;13.568;2023-01-09T08:01:47;16.52;;;13.00;;
9409;SDS011;4744;52.576;13.568;2023-01-09T08:04:14;15.63;;;12.30;;
9409;SDS011;4744;52.576;13.568;2023-01-09T08:06:41;16.55;;;13.32;;
9409;SDS011;4744;52.576;13.568;2023-01-09T08:09:08;16.40;;;13.38;;
9409;SDS011;4744;52.576;13.568;2023-01-09T08:11:37;16.85;;;13.35;;
9409;SDS011;4744;52.576;13.568;2023-01-09T08:14:04;16.92;;;13.55;;
9409;SDS011;4744;52.576;13.568;2023-01-09T08:16:31;16.73;;;13.48;;
9409;SDS011;4744;52.576;13.568;2023-01-09T08:18:57;15.93;;;13.43;;
9409;SDS011;4744;52.576;13.568;2023-01-09T08:21:24;15.32;;;13.57;;
9409;SDS011;4744;52.576;13.568;2023-01-09T08:23:51;16.48;;;13.30;;
9409;SDS011;4744;52.576;13.568;2023-01-09T08:26:18;15.57;;;12.38;;
9409;SDS011;4744;52.576;13.568;2023-01-09T08:28:46;15.57;;;12.90;;
9409;SDS011;4744;52.576;13.568;2023-01-09T08:31:13;16.13;;;13.00;;
9409;SDS011;4744;52.576;13.568;2023-01-09T08:33:40;13.98;;;12.40;;
9409;SDS011;4744;52.576;13.568;2023-01-09T08:36:08;17.60;;;13.43;;
9409;SDS011;4744;52.576;13.568;2023-01-09T08:38:35;17.83;;;13.75;;
9409;SDS011;4744;52.576;13.568;2023-01-09T08:41:02;16.33;;;12.65;;
9409;SDS011;4744;52.576;13.568;2023-01-09T08:43:51;16.55;;;12.95;;
9409;SDS011;4744;52.576;13.568;2023-01-09T08:46:35;15.30;;;12.45;;
9409;SDS011;4744;52.576;13.568;2023-01-09T08:49:20;15.75;;;12.40;;
9409;SDS011;4744;52.576;13.568;2023-01-09T08:51:46;15.32;;;13.07;;
9409;SDS011;4744;52.576;13.568;2023-01-09T08:54:13;16.42;;;13.38;;
9409;SDS011;4744;52.576;13.568;2023-01-09T08:56:40;16.60;;;13.13;;
9409;SDS011;4744;52.576;13.568;2023-01-09T08:59:09;17.10;;;14.02;;
9409;SDS011;4744;52.576;13.568;2023-01-09T09:01:36;15.23;;;12.88;;
9409;SDS011;4744;52.576;13.568;2023-01-09T09:04:03;14.38;;;12.60;;
9409;SDS011;4744;52.576;13.568;2023-01-09T09:06:30;16.60;;;13.23;;
9409;SDS011;4744;52.576;13.568;2023-01-09T09:08:58;16.00;;;12.35;;
9409;SDS011;4744;52.576;13.568;2023-01-09T09:11:27;14.63;;;12.98;;
9409;SDS011;4744;52.576;13.568;2023-01-09T09:13:55;15.65;;;12.60;;
9409;SDS011;4744;52.576;13.568;2023-01-09T09:16:24;15.75;;;12.38;;
9409;SDS011;4744;52.576;13.568;2023-01-09T09:18:51;13.43;;;11.25;;
9409;SDS011;4744;52.576;13.568;2023-01-09T09:21:18;16.65;;;12.38;;
9409;SDS011;4744;52.576;13.568;2023-01-09T09:23:45;14.93;;;12.50;;
9409;SDS011;4744;52.576;13.568;2023-01-09T09:26:12;15.52;;;11.82;;
9409;SDS011;4744;52.576;13.568;2023-01-09T09:28:39;13.88;;;12.13;;
9409;SDS011;4744;52.576;13.568;2023-01-09T09:31:06;15.05;;;12.68;;
9409;SDS011;4744;52.576;13.568;2023-01-09T09:33:35;14.48;;;12.55;;
9409;SDS011;4744;52.576;13.568;2023-01-09T09:36:02;14.55;;;12.00;;
9409;SDS011;4744;52.576;13.568;2023-01-09T09:38:29;14.57;;;11.35;;
9409;SDS011;4744;52.576;13.568;2023-01-09T09:41:00;15.82;;;11.88;;
9409;SDS011;4744;52.576;13.568;2023-01-09T09:43:57;14.00;;;11.35;;
9409;SDS011;4744;52.576;13.568;2023-01-09T09:46:51;15.88;;;12.27;;
9409;SDS011;4744;52.576;13.568;2023-01-09T09:49:30;14.88;;;11.73;;
9409;SDS011;4744;52.576;13.568;2023-01-09T09:52:07;13.60;;;11.27;;
9409;SDS011;4744;52.576;13.568;2023-01-09T09:54:44;14.38;;;12.23;;
9409;SDS011;4744;52.576;13.568;2023-01-09T09:57:15;13.50;;;11.48;;
9409;SDS011;4744;52.576;13.568;2023-01-09T09:59:46;14.20;;;11.57;;
9409;SDS011;4744;52.576;13.568;2023-01-09T10:02:22;13.85;;;11.70;;
9409;SDS011;4744;52.576;13.568;2023-01-09T10:04:55;13.00;;;11.02;;
9409;SDS011;4744;52.576;13.568;2023-01-09T10:07:26;14.60;;;12.10;;
9409;SDS011;4744;52.576;13.568;2023-01-09T10:09:59;13.40;;;11.85;;
9409;SDS011;4744;52.576;13.568;2023-01-09T10:12:30;14.27;;;11.05;;
9409;SDS011;4744;52.576;13.568;2023-01-09T10:15:01;12.75;;;10.68;;
9409;SDS011;4744;52.576;13.568;2023-01-09T10:17:39;13.65;;;11.60;;
9409;SDS011;4744;52.576;13.568;2023-01-09T10:23:13;14.15;;;11.00;;
9409;SDS011;4744;52.576;13.568;2023-01-09T10:25:59;14.13;;;10.45;;
9409;SDS011;4744;52.576;13.568;2023-01-09T10:28:36;11.93;;;10.52;;
9409;SDS011;4744;52.576;13.568;2023-01-09T10:31:28;12.48;;;10.95;;
9409;SDS011;4744;52.576;13.568;2023-01-09T10:34:02;12.95;;;10.98;;
9409;SDS011;4744;52.576;13.568;2023-01-09T10:36:44;12.90;;;10.77;;
9409;SDS011;4744;52.576;13.568;2023-01-09T10:39:23;12.77;;;10.50;;
9409;SDS011;4744;52.576;13.568;2023-01-09T10:41:57;13.23;;;10.68;;
9409;SDS011;4744;52.576;13.568;2023-01-09T10:44:30;10.70;;;9.48;;
9409;SDS011;4744;52.576;13.568;2023-01-09T10:47:02;12.63;;;10.60;;
9409;SDS011;4744;52.576;13.568;2023-01-09T10:49:33;12.52;;;10.25;;
9409;SDS011;4744;52.576;13.568;2023-01-09T10:52:09;11.85;;;10.57;;
9409;SDS011;4744;52.576;13.568;2023-01-09T10:54:41;11.68;;;9.95;;
9409;SDS011;4744;52.576;13.568;2023-01-09T10:57:26;10.45;;;9.40;;
9409;SDS011;4744;52.576;13.568;2023-01-09T11:00:04;9.23;;;8.32;;
9409;SDS011;4744;52.576;13.568;2023-01-09T11:02:33;10.45;;;9.10;;
9409;SDS011;4744;52.576;13.568;2023-01-09T11:05:01;9.88;;;8.88;;
9409;SDS011;4744;52.576;13.568;2023-01-09T11:07:30;9.10;;;8.20;;
9409;SDS011;4744;52.576;13.568;2023-01-09T11:10:02;8.35;;;7.47;;
9409;SDS011;4744;52.576;13.568;2023-01-09T11:12:32;8.38;;;7.50;;
9409;SDS011;4744;52.576;13.568;2023-01-09T11:15:16;8.90;;;7.18;;
9409;SDS011;4744;52.576;13.568;2023-01-09T11:17:53;8.30;;;7.20;;
9409;SDS011;4744;52.576;13.568;2023-01-09T11:20:23;7.50;;;6.80;;
9409;SDS011;4744;52.576;13.568;2023-01-09T11:22:53;7.78;;;7.07;;
9409;SDS011;4744;52.576;13.568;2023-01-09T11:25:22;7.13;;;6.43;;
9409;SDS011;4744;52.576;13.568;2023-01-09T11:28:04;7.63;;;6.88;;
9409;SDS011;4744;52.576;13.568;2023-01-09T11:30:33;6.63;;;6.00;;
9409;SDS011;4744;52.576;13.568;2023-01-09T11:33:11;6.90;;;6.32;;
9409;SDS011;4744;52.576;13.568;2023-01-09T11:35:48;7.25;;;6.55;;
9409;SDS011;4744;52.576;13.568;2023-01-09T11:38:22;5.70;;;5.20;;
9409;SDS011;4744;52.576;13.568;2023-01-09T11:40:49;6.63;;;5.90;;
9409;SDS011;4744;52.576;13.568;2023-01-09T11:43:20;7.18;;;6.57;;
9409;SDS011;4744;52.576;13.568;2023-01-09T11:45:55;6.90;;;5.95;;
9409;SDS011;4744;52.576;13.568;2023-01-09T11:51:21;6.38;;;5.72;;
9409;SDS011;4744;52.576;13.568;2023-01-09T11:56:47;6.85;;;6.20;;
9409;SDS011;4744;52.576;13.568;2023-01-09T11:59:16;6.13;;;5.63;;
9409;SDS011;4744;52.576;13.568;2023-01-09T12:01:51;7.35;;;5.65;;
9409;SDS011;4744;52.576;13.568;2023-01-09T12:04:36;5.78;;;5.22;;
9409;SDS011;4744;52.576;13.568;2023-01-09T12:07:18;5.07;;;4.55;;
9409;SDS011;4744;52.576;13.568;2023-01-09T12:10:33;5.32;;;4.55;;
9409;SDS011;4744;52.576;13.568;2023-01-09T12:13:21;4.85;;;4.30;;
9409;SDS011;4744;52.576;13.568;2023-01-09T12:15:57;4.25;;;3.85;;
9409;SDS011;4744;52.576;13.568;2023-01-09T12:18:34;4.03;;;3.63;;
9409;SDS011;4744;52.576;13.568;2023-01-09T12:21:12;4.78;;;3.53;;
9409;SDS011;4744;52.576;13.568;2023-01-09T12:23:53;4.75;;;3.65;;
9409;SDS011;4744;52.576;13.568;2023-01-09T12:26:32;4.68;;;3.33;;
9409;SDS011;4744;52.576;13.568;2023-01-09T12:29:10;4.78;;;3.40;;
9409;SDS011;4744;52.576;13.568;2023-01-09T12:32:04;6.18;;;3.65;;
9409;SDS011;4744;52.576;13.568;2023-01-09T12:34:57;4.57;;;3.30;;
9409;SDS011;4744;52.576;13.568;2023-01-09T12:37:36;4.90;;;3.38;;
9409;SDS011;4744;52.576;13.568;2023-01-09T12:40:29;5.15;;;3.05;;
9409;SDS011;4744;52.576;13.568;2023-01-09T12:43:10;3.08;;;2.83;;
9409;SDS011;4744;52.576;13.568;2023-01-09T12:45:48;3.40;;;3.00;;
9409;SDS011;4744;52.576;13.568;2023-01-09T12:48:28;3.25;;;2.60;;
9409;SDS011;4744;52.576;13.568;2023-01-09T12:51:08;4.32;;;2.75;;
9409;SDS011;4744;52.576;13.568;2023-01-09T12:53:45;2.78;;;2.40;;
9409;SDS011;4744;52.576;13.568;2023-01-09T12:56:18;2.33;;;2.20;;
9409;SDS011;4744;52.576;13.568;2023-01-09T12:58:51;2.65;;;2.45;;
9409;SDS011;4744;52.576;13.568;2023-01-09T13:01:21;2.20;;;2.00;;
9409;SDS011;4744;52.576;13.568;2023-01-09T13:03:55;2.40;;;2.17;;
9409;SDS011;4744;52.576;13.568;2023-01-09T13:06:32;4.72;;;2.25;;
9409;SDS011;4744;52.576;13.568;2023-01-09T13:09:06;4.88;;;2.47;;
9409;SDS011;4744;52.576;13.568;2023-01-09T13:11:44;3.08;;;2.08;;
9409;SDS011;4744;52.576;13.568;2023-01-09T13:14:17;2.00;;;1.90;;
9409;SDS011;4744;52.576;13.568;2023-01-09T13:16:50;3.10;;;2.22;;
9409;SDS011;4744;52.576;13.568;2023-01-09T13:19:20;2.53;;;2.00;;
9409;SDS011;4744;52.576;13.568;2023-01-09T13:21:52;2.30;;;2.10;;
9409;SDS011;4744;52.576;13.568;2023-01-09T13:24:21;5.40;;;2.60;;
9409;SDS011;4744;52.576;13.568;2023-01-09T13:26:53;3.05;;;2.10;;
9409;SDS011;4744;52.576;13.568;2023-01-09T13:29:26;4.30;;;2.05;;
9409;SDS011;4744;52.576;13.568;2023-01-09T13:32:00;3.15;;;1.80;;
9409;SDS011;4744;52.576;13.568;2023-01-09T13:34:45;2.40;;;1.83;;
9409;SDS011;4744;52.576;13.568;2023-01-09T13:37:19;3.70;;;2.00;;
9409;SDS011;4744;52.576;13.568;2023-01-09T13:39:53;3.95;;;2.08;;
9409;SDS011;4744;52.576;13.568;2023-01-09T13:42:22;3.28;;;1.60;;
9409;SDS011;4744;52.576;13.568;2023-01-09T13:45:11;2.75;;;1.90;;
9409;SDS011;4744;52.576;13.568;2023-01-09T13:47:46;2.65;;;1.83;;
9409;SDS011;4744;52.576;13.568;2023-01-09T13:50:44;2.45;;;1.73;;
9409;SDS011;4744;52.576;13.568;2023-01-09T13:56:11;2.63;;;1.63;;
9409;SDS011;4744;52.576;13.568;2023-01-09T13:59:00;4.15;;;1.98;;
9409;SDS011;4744;52.576;13.568;2023-01-09T14:01:43;3.15;;;1.70;;
9409;SDS011;4744;52.576;13.568;2023-01-09T14:09:54;4.93;;;1.92;;
9409;SDS011;4744;52.576;13.568;2023-01-09T14:12:24;2.10;;;1.90;;
9409;SDS011;4744;52.576;13.568;2023-01-09T14:14:53;1.90;;;1.80;;
9409;SDS011;4744;52.576;13.568;2023-01-09T14:17:26;2.92;;;1.63;;
9409;SDS011;4744;52.576;13.568;2023-01-09T14:19:58;2.10;;;1.75;;
9409;SDS011;4744;52.576;13.568;2023-01-09T14:22:27;2.53;;;1.80;;
9409;SDS011;4744;52.576;13.568;2023-01-09T14:25:00;1.95;;;1.80;;
9409;SDS011;4744;52.576;13.568;2023-01-09T14:30:22;2.10;;;1.90;;
9409;SDS011;4744;52.576;13.568;2023-01-09T14:32:56;2.42;;;2.03;;
9409;SDS011;4744;52.576;13.568;2023-01-09T14:35:26;2.25;;;1.67;;
9409;SDS011;4744;52.576;13.568;2023-01-09T14:38:02;1.75;;;1.65;;
9409;SDS011;4744;52.576;13.568;2023-01-09T14:40:32;2.05;;;1.85;;
9409;SDS011;4744;52.576;13.568;2023-01-09T14:43:04;2.53;;;2.20;;
9409;SDS011;4744;52.576;13.568;2023-01-09T14:45:39;2.65;;;2.20;;
9409;SDS011;4744;52.576;13.568;2023-01-09T14:48:13;2.90;;;2.08;;
9409;SDS011;4744;52.576;13.568;2023-01-09T14:50:42;2.95;;;2.20;;
9409;SDS011;4744;52.576;13.568;2023-01-09T14:53:15;2.22;;;1.90;;
9409;SDS011;4744;52.576;13.568;2023-01-09T14:55:47;3.70;;;1.98;;
9409;SDS011;4744;52.576;13.568;2023-01-09T14:58:18;3.00;;;2.10;;
9409;SDS011;4744;52.576;13.568;2023-01-09T15:00:57;2.85;;;1.90;;
9409;SDS011;4744;52.576;13.568;2023-01-09T15:03:30;2.40;;;2.15;;
9409;SDS011;4744;52.576;13.568;2023-01-09T15:05:59;4.18;;;2.28;;
9409;SDS011;4744;52.576;13.568;2023-01-09T15:08:27;4.07;;;1.95;;
9409;SDS011;4744;52.576;13.568;2023-01-09T15:10:54;2.45;;;2.25;;
9409;SDS011;4744;52.576;13.568;2023-01-09T15:13:26;2.08;;;1.98;;
9409;SDS011;4744;52.576;13.568;2023-01-09T15:15:56;2.85;;;2.00;;
9409;SDS011;4744;52.576;13.568;2023-01-09T15:18:26;3.45;;;1.83;;
9409;SDS011;4744;52.576;13.568;2023-01-09T15:20:57;2.55;;;2.00;;
9409;SDS011;4744;52.576;13.568;2023-01-09T15:23:28;2.53;;;2.00;;
9409;SDS011;4744;52.576;13.568;2023-01-09T15:25:56;1.95;;;1.85;;
9409;SDS011;4744;52.576;13.568;2023-01-09T15:28:39;3.00;;;2.13;;
9409;SDS011;4744;52.576;13.568;2023-01-09T15:31:09;2.60;;;2.10;;
9409;SDS011;4744;52.576;13.568;2023-01-09T15:33:40;2.10;;;1.98;;
9409;SDS011;4744;52.576;13.568;2023-01-09T15:36:10;2.33;;;1.95;;
9409;SDS011;4744;52.576;13.568;2023-01-09T15:38:40;1.90;;;1.80;;
9409;SDS011;4744;52.576;13.568;2023-01-09T15:41:09;2.30;;;2.10;;
9409;SDS011;4744;52.576;13.568;2023-01-09T15:43:38;3.38;;;2.03;;